createdAt,value
2019-03-30T17:43:54.342Z,47.86
2019-03-30T17:46:21.003Z,46.29
2019-03-30T17:48:47.581Z,47.16
2019-03-30T17:51:14.054Z,48.85
2019-03-30T17:53:40.824Z,48.97
2019-03-30T17:56:07.524Z,49.12
2019-03-30T17:58:33.961Z,49.63
2019-03-30T18:01:00.491Z,49.35
2019-03-30T18:03:27.123Z,50.05
2019-03-30T18:05:53.671Z,50.39
2019-03-30T18:08:20.202Z,49.89
2019-03-30T18:10:46.775Z,49.91
2019-03-30T18:13:13.225Z,51.48
2019-03-30T18:15:39.726Z,50.60
2019-03-30T18:18:06.411Z,51.42
2019-03-30T18:20:32.883Z,54.26
2019-03-30T18:22:59.285Z,52.28
2019-03-30T18:25:25.758Z,53.28
2019-03-30T18:27:52.239Z,52.37
2019-03-30T18:30:23.002Z,52.54
2019-03-30T18:32:49.422Z,52.04
2019-03-30T18:35:15.975Z,52.68
2019-03-30T18:37:42.542Z,54.56
2019-03-30T18:40:10.921Z,54.21
2019-03-30T18:42:37.337Z,56.49
2019-03-30T18:45:04.693Z,55.29
2019-03-30T18:47:31.497Z,56.85
2019-03-30T18:49:58.221Z,58.09
2019-03-30T18:52:24.767Z,58.45
2019-03-30T18:54:51.403Z,57.91
2019-03-30T18:57:17.998Z,59.19
2019-03-30T18:59:44.434Z,59.63
2019-03-30T19:02:10.990Z,59.07
2019-03-30T19:04:37.431Z,60.11
2019-03-30T19:07:03.838Z,60.71
2019-03-30T19:09:30.250Z,59.80
2019-03-30T19:11:56.910Z,60.71
2019-03-30T19:14:23.417Z,61.78
2019-03-30T19:16:49.834Z,61.91
2019-03-30T19:19:16.356Z,61.84
2019-03-30T19:21:42.941Z,61.85
2019-03-30T19:24:09.346Z,61.79
2019-03-30T19:26:35.906Z,62.90
2019-03-30T19:29:02.442Z,62.31
2019-03-30T19:31:28.858Z,63.32
2019-03-30T19:33:55.279Z,64.38
2019-03-30T19:36:21.699Z,64.41
2019-03-30T19:38:48.203Z,64.49
2019-03-30T19:41:14.675Z,64.57
2019-03-30T19:43:41.103Z,65.85
2019-03-30T19:46:07.627Z,65.82
2019-03-30T19:48:36.807Z,65.93
2019-03-30T19:51:02.386Z,65.95
2019-03-30T19:53:28.940Z,66.09
2019-03-30T19:55:55.358Z,67.00
2019-03-30T19:58:21.858Z,66.40
2019-03-30T20:00:48.398Z,67.44
2019-03-30T20:03:14.959Z,67.50
2019-03-30T20:05:44.520Z,67.78
2019-03-30T20:08:12.246Z,67.79
2019-03-30T20:10:38.145Z,67.83
2019-03-30T20:13:04.616Z,68.18
2019-03-30T20:15:31.135Z,68.80
2019-03-30T20:17:57.842Z,69.75
2019-03-30T20:20:24.375Z,70.13
2019-03-30T20:22:50.907Z,70.43
2019-03-30T20:25:17.427Z,70.71
2019-03-30T20:27:44.099Z,71.17
2019-03-30T20:30:10.618Z,71.02
2019-03-30T20:32:37.101Z,71.56
2019-03-30T20:35:04.114Z,72.22
2019-03-30T20:37:30.628Z,72.88
2019-03-30T20:39:57.058Z,72.66
2019-03-30T20:42:23.496Z,72.77
2019-03-30T20:44:50.091Z,72.84
2019-03-30T20:47:16.687Z,73.70
2019-03-30T20:49:43.434Z,73.89
2019-03-30T20:52:09.977Z,74.57
2019-03-30T20:54:36.678Z,74.83
2019-03-30T20:57:03.274Z,75.15
2019-03-30T20:59:39.966Z,74.90
2019-03-30T21:01:58.689Z,75.03
2019-03-30T21:04:25.242Z,75.64
2019-03-30T21:06:52.016Z,75.40
2019-03-30T21:09:18.645Z,75.60
2019-03-30T21:11:45.272Z,75.60
2019-03-30T21:14:11.701Z,75.55
2019-03-30T21:16:38.414Z,76.34
2019-03-30T21:19:04.925Z,76.08
2019-03-30T21:21:31.636Z,76.29
2019-03-30T21:24:32.530Z,76.25
2019-03-30T21:26:59.115Z,76.43
2019-03-30T21:29:25.639Z,76.34
2019-03-30T21:31:52.193Z,76.73
2019-03-30T21:34:19.755Z,76.52
2019-03-30T21:36:46.369Z,76.63
2019-03-30T21:39:12.945Z,77.21
2019-03-30T21:41:39.502Z,76.99
2019-03-30T21:44:21.101Z,77.33
2019-03-30T21:46:35.561Z,77.24
2019-03-30T21:49:02.196Z,77.44
2019-03-30T21:51:28.878Z,77.41
2019-03-30T21:53:55.489Z,77.55
2019-03-30T21:56:22.233Z,77.79
2019-03-30T21:58:48.793Z,78.37
2019-03-30T22:01:15.582Z,78.50
2019-03-30T22:03:42.051Z,78.74
2019-03-30T22:06:08.619Z,79.18
2019-03-30T22:08:35.149Z,78.60
2019-03-30T22:11:01.818Z,78.52
2019-03-30T22:13:28.325Z,78.91
2019-03-30T22:15:54.809Z,79.23
2019-03-30T22:18:21.418Z,79.12
2019-03-30T22:20:48.828Z,79.36
2019-03-30T22:23:17.081Z,79.86
2019-03-30T22:25:44.421Z,76.99
2019-03-30T22:28:12.706Z,75.49
2019-03-30T22:30:40.054Z,74.96
2019-03-30T22:33:07.350Z,74.93
2019-03-30T22:35:34.571Z,75.13
2019-03-30T22:38:01.791Z,76.42
2019-03-30T22:40:29.166Z,77.10
2019-03-30T22:42:56.422Z,76.97
2019-03-30T22:45:23.714Z,78.51
2019-03-30T22:47:50.987Z,78.36
2019-03-30T22:50:18.208Z,77.75
2019-03-30T22:52:45.485Z,77.24
2019-03-30T22:55:12.885Z,77.31
2019-03-30T22:57:40.113Z,77.35
2019-03-30T23:00:08.997Z,77.47
2019-03-30T23:02:36.302Z,77.57
2019-03-30T23:05:03.801Z,77.80
2019-03-30T23:07:30.929Z,77.89
2019-03-30T23:09:58.042Z,78.04
2019-03-30T23:12:25.230Z,78.75
2019-03-30T23:14:52.417Z,78.54
2019-03-30T23:17:19.688Z,78.57
2019-03-30T23:19:46.887Z,78.67
2019-03-30T23:22:15.230Z,78.98
2019-03-30T23:24:42.566Z,79.52
2019-03-30T23:27:09.796Z,79.53
2019-03-30T23:29:37.011Z,80.12
2019-03-30T23:32:04.318Z,79.73
2019-03-30T23:34:31.518Z,79.91
2019-03-30T23:36:58.700Z,79.69
2019-03-30T23:39:25.891Z,79.70
2019-03-30T23:41:53.107Z,79.81
2019-03-30T23:44:20.308Z,79.75
2019-03-30T23:46:47.647Z,79.95
2019-03-30T23:49:14.854Z,79.96
2019-03-30T23:51:42.056Z,80.03
2019-03-30T23:54:10.982Z,80.29
2019-03-30T23:56:38.196Z,81.75
2019-03-30T23:59:05.353Z,80.94
